Capitol Logistics 976


EHAM
Schiphol International Airport
Amsterdam, NL
KMIA
Miami International Airport
Miami, US

Activity Log

Date Flight Route Aircraft Duration
No Flights Yet

Route Details

Aircraft Information
Primary: Boeing 747-400BCF
Backup: Boeing 777-200LRF
Route Data
Distance: 4023nm
Sched. Duration: 9h 26m
Avg. Duration: 0h 00m (-927m)
Times Flown: 0
Recm'd Route: SEELO AR22 JENKS AR22 JORAY HILEY7
Planned Altitude: 32,000ft
Origin Wx: EHAM 271655Z 32007KT 290V350 6000 SHRA FEW009 SCT020CB BKN021 04/03 Q0999 TEMPO 33015G25KT 5000 SHRAGS
Dest. Wx: KMIA 271653Z 33010G18KT 300V360 10SM FEW030 SCT140 BKN160 BKN180 19/07 A3017 RMK AO2 SLP214 T01890067
Notes: SEASONAL FLIGHT | PERISHABLE CARGO

Financial History
Total Freight: 0lbs
Average Load: 0lbs/flt
Fuel Used: 0lbs
Avg. Fuel Used: 0lbs/flt
Fuel Expense: $0
Avg. Fuel Expense: $0
Avg. Fuel Cost: $0/lbs
Total Gross Income: $0
Pilot Pay: $0
Total Expenses: $0
Total Revenue: $0
Average Revenue: $0